Akutan, Alaska
Current Conditions -  °F | °C
As of 10:35 AM on Friday 24 Oct 2014 (Local Time) from PAUT Reporting Station
Haze Haze  
Wind Chill: 41°   Ceiling: 3000
Heat Index: 45°   Visibility: 5mi
Dew Point: 40°   Wind: 7mph
Humidity: 85%   Direction: 350°N
Pressure: 30.05"   Gusts: NA
Location:  54.14°N, 165.77°W
Report Text: PAUT 241835Z AUTO 35006KT 330V120 5SM HZ BKN030 BKN045 OVC060 07/05 A3005 RMK AO2 T00700046
Loading
Personal Weather Stations






























Interactive Weather Map
Tropical Storm Tracking
New forecast layout! Learn more

10-Day Weather Forecast

Advertisements
Track Severe Weather on mobile